sensor_id;sensor_type;location;lat;lon;timestamp;pressure;altitude;pressure_sealevel;temperature;humidity
74163;BME280;62515;52.758;5.076;2023-11-21T00:02:08;101092.16;;;8.52;100.00
74163;BME280;62515;52.758;5.076;2023-11-21T00:04:35;101100.19;;;8.50;100.00
74163;BME280;62515;52.758;5.076;2023-11-21T00:07:02;101095.81;;;8.49;100.00
74163;BME280;62515;52.758;5.076;2023-11-21T00:09:28;101105.97;;;8.57;100.00
74163;BME280;62515;52.758;5.076;2023-11-21T00:11:55;101105.97;;;8.57;100.00
74163;BME280;62515;52.758;5.076;2023-11-21T00:14:22;101109.56;;;8.56;100.00
74163;BME280;62515;52.758;5.076;2023-11-21T00:16:48;101099.81;;;8.56;100.00
74163;BME280;62515;52.758;5.076;2023-11-21T00:19:17;101112.13;;;8.57;100.00
74163;BME280;62515;52.758;5.076;2023-11-21T00:21:43;101106.84;;;8.57;100.00
74163;BME280;62515;52.758;5.076;2023-11-21T00:24:10;101118.38;;;8.56;100.00
74163;BME280;62515;52.758;5.076;2023-11-21T00:26:37;101114.13;;;8.54;100.00
74163;BME280;62515;52.758;5.076;2023-11-21T00:29:05;101120.84;;;8.59;100.00
74163;BME280;62515;52.758;5.076;2023-11-21T00:31:31;101118.97;;;8.61;100.00
74163;BME280;62515;52.758;5.076;2023-11-21T00:33:58;101125.03;;;8.63;100.00
74163;BME280;62515;52.758;5.076;2023-11-21T00:36:26;101118.69;;;8.66;100.00
74163;BME280;62515;52.758;5.076;2023-11-21T00:38:53;101121.16;;;8.69;100.00
74163;BME280;62515;52.758;5.076;2023-11-21T00:41:20;101122.78;;;8.71;100.00
74163;BME280;62515;52.758;5.076;2023-11-21T00:43:46;101120.91;;;8.73;100.00
74163;BME280;62515;52.758;5.076;2023-11-21T00:46:13;101127.81;;;8.76;100.00
74163;BME280;62515;52.758;5.076;2023-11-21T00:48:40;101119.59;;;8.80;100.00
74163;BME280;62515;52.758;5.076;2023-11-21T00:51:07;101124.72;;;8.83;100.00
74163;BME280;62515;52.758;5.076;2023-11-21T00:53:35;101130.03;;;8.83;100.00
74163;BME280;62515;52.758;5.076;2023-11-21T00:56:02;101129.25;;;8.81;100.00
74163;BME280;62515;52.758;5.076;2023-11-21T00:58:29;101127.44;;;8.82;100.00
74163;BME280;62515;52.758;5.076;2023-11-21T01:00:55;101126.59;;;8.81;100.00
74163;BME280;62515;52.758;5.076;2023-11-21T01:03:22;101131.22;;;8.78;100.00
74163;BME280;62515;52.758;5.076;2023-11-21T01:05:50;101144.22;;;8.82;100.00
74163;BME280;62515;52.758;5.076;2023-11-21T01:08:16;101142.31;;;8.84;100.00
74163;BME280;62515;52.758;5.076;2023-11-21T01:10:44;101145.75;;;8.86;100.00
74163;BME280;62515;52.758;5.076;2023-11-21T01:13:11;101143.38;;;8.82;100.00
74163;BME280;62515;52.758;5.076;2023-11-21T01:15:38;101162.72;;;8.84;100.00
74163;BME280;62515;52.758;5.076;2023-11-21T01:18:04;101157.59;;;8.81;100.00
74163;BME280;62515;52.758;5.076;2023-11-21T01:20:32;101166.38;;;8.81;100.00
74163;BME280;62515;52.758;5.076;2023-11-21T01:22:58;101167.06;;;8.85;100.00
74163;BME280;62515;52.758;5.076;2023-11-21T01:25:26;101172.13;;;8.89;100.00
74163;BME280;62515;52.758;5.076;2023-11-21T01:27:55;101174.59;;;8.92;100.00
74163;BME280;62515;52.758;5.076;2023-11-21T01:30:22;101172.78;;;8.93;100.00
74163;BME280;62515;52.758;5.076;2023-11-21T01:32:49;101173.84;;;8.90;100.00
74163;BME280;62515;52.758;5.076;2023-11-21T01:35:16;101179.91;;;8.92;100.00
74163;BME280;62515;52.758;5.076;2023-11-21T01:37:43;101187.00;;;8.92;100.00
74163;BME280;62515;52.758;5.076;2023-11-21T01:40:10;101186.06;;;8.93;100.00
74163;BME280;62515;52.758;5.076;2023-11-21T01:42:37;101200.19;;;8.93;100.00
74163;BME280;62515;52.758;5.076;2023-11-21T01:45:07;101189.56;;;8.93;100.00
74163;BME280;62515;52.758;5.076;2023-11-21T01:47:33;101191.06;;;8.98;100.00
74163;BME280;62515;52.758;5.076;2023-11-21T01:50:01;101195.63;;;8.96;100.00
74163;BME280;62515;52.758;5.076;2023-11-21T01:52:28;101202.66;;;8.97;100.00
74163;BME280;62515;52.758;5.076;2023-11-21T01:54:55;101198.41;;;8.94;100.00
74163;BME280;62515;52.758;5.076;2023-11-21T01:57:21;101211.66;;;8.94;100.00
74163;BME280;62515;52.758;5.076;2023-11-21T01:59:48;101213.19;;;8.98;100.00
74163;BME280;62515;52.758;5.076;2023-11-21T02:02:16;101210.06;;;9.06;100.00
74163;BME280;62515;52.758;5.076;2023-11-21T02:04:44;101206.50;;;9.07;100.00
74163;BME280;62515;52.758;5.076;2023-11-21T02:07:11;101212.47;;;9.10;100.00
74163;BME280;62515;52.758;5.076;2023-11-21T02:09:38;101210.84;;;9.08;100.00
74163;BME280;62515;52.758;5.076;2023-11-21T02:12:05;101227.13;;;9.02;100.00
74163;BME280;62515;52.758;5.076;2023-11-21T02:14:32;101233.38;;;9.01;100.00
74163;BME280;62515;52.758;5.076;2023-11-21T02:16:59;101230.47;;;9.05;100.00
74163;BME280;62515;52.758;5.076;2023-11-21T02:19:27;101227.91;;;9.04;100.00
74163;BME280;62515;52.758;5.076;2023-11-21T02:21:56;101222.09;;;8.97;100.00
74163;BME280;62515;52.758;5.076;2023-11-21T02:24:25;101222.28;;;8.94;100.00
74163;BME280;62515;52.758;5.076;2023-11-21T02:26:52;101224.34;;;8.89;100.00
74163;BME280;62515;52.758;5.076;2023-11-21T02:29:20;101221.28;;;8.81;100.00
74163;BME280;62515;52.758;5.076;2023-11-21T02:31:48;101218.97;;;8.75;100.00
74163;BME280;62515;52.758;5.076;2023-11-21T02:34:15;101227.03;;;8.73;100.00
74163;BME280;62515;52.758;5.076;2023-11-21T02:36:42;101222.09;;;8.67;100.00
74163;BME280;62515;52.758;5.076;2023-11-21T02:39:09;101232.78;;;8.66;100.00
74163;BME280;62515;52.758;5.076;2023-11-21T02:41:37;101241.34;;;8.71;100.00
74163;BME280;62515;52.758;5.076;2023-11-21T02:44:04;101237.66;;;8.73;100.00
74163;BME280;62515;52.758;5.076;2023-11-21T02:46:31;101245.44;;;8.76;100.00
74163;BME280;62515;52.758;5.076;2023-11-21T02:48:59;101238.75;;;8.69;100.00
74163;BME280;62515;52.758;5.076;2023-11-21T02:51:26;101242.69;;;8.62;100.00
74163;BME280;62515;52.758;5.076;2023-11-21T02:53:53;101250.09;;;8.57;100.00
74163;BME280;62515;52.758;5.076;2023-11-21T02:56:19;101244.59;;;8.60;100.00
74163;BME280;62515;52.758;5.076;2023-11-21T02:58:48;101242.44;;;8.67;100.00
74163;BME280;62515;52.758;5.076;2023-11-21T03:01:15;101246.53;;;8.72;100.00
74163;BME280;62515;52.758;5.076;2023-11-21T03:03:41;101240.31;;;8.73;100.00
74163;BME280;62515;52.758;5.076;2023-11-21T03:06:08;101244.69;;;8.74;100.00
74163;BME280;62515;52.758;5.076;2023-11-21T03:08:35;101240.13;;;8.76;100.00
74163;BME280;62515;52.758;5.076;2023-11-21T03:11:02;101240.13;;;8.76;100.00
74163;BME280;62515;52.758;5.076;2023-11-21T03:13:29;101241.47;;;8.83;100.00
74163;BME280;62515;52.758;5.076;2023-11-21T03:15:58;101245.31;;;8.93;100.00
74163;BME280;62515;52.758;5.076;2023-11-21T03:18:25;101248.41;;;9.16;100.00
74163;BME280;62515;52.758;5.076;2023-11-21T03:20:52;101248.44;;;9.30;100.00
74163;BME280;62515;52.758;5.076;2023-11-21T03:23:19;101252.44;;;9.37;100.00
74163;BME280;62515;52.758;5.076;2023-11-21T03:25:46;101247.53;;;9.45;100.00
74163;BME280;62515;52.758;5.076;2023-11-21T03:28:13;101256.44;;;9.44;100.00
74163;BME280;62515;52.758;5.076;2023-11-21T03:30:40;101254.72;;;9.43;100.00
74163;BME280;62515;52.758;5.076;2023-11-21T03:33:08;101262.16;;;9.52;100.00
74163;BME280;62515;52.758;5.076;2023-11-21T03:35:34;101262.72;;;9.57;100.00
74163;BME280;62515;52.758;5.076;2023-11-21T03:38:01;101259.69;;;9.63;100.00
74163;BME280;62515;52.758;5.076;2023-11-21T03:40:28;101261.78;;;9.72;100.00
74163;BME280;62515;52.758;5.076;2023-11-21T03:42:55;101261.22;;;9.81;100.00
74163;BME280;62515;52.758;5.076;2023-11-21T03:45:22;101260.25;;;9.82;100.00
74163;BME280;62515;52.758;5.076;2023-11-21T03:47:49;101265.56;;;9.82;100.00
74163;BME280;62515;52.758;5.076;2023-11-21T03:50:18;101267.50;;;9.80;100.00
74163;BME280;62515;52.758;5.076;2023-11-21T03:52:44;101265.78;;;9.79;100.00
74163;BME280;62515;52.758;5.076;2023-11-21T03:55:11;101271.75;;;9.83;100.00
74163;BME280;62515;52.758;5.076;2023-11-21T03:57:42;101269.09;;;9.83;100.00
74163;BME280;62515;52.758;5.076;2023-11-21T04:00:09;101268.81;;;9.87;100.00
74163;BME280;62515;52.758;5.076;2023-11-21T04:02:39;101268.91;;;9.86;100.00
74163;BME280;62515;52.758;5.076;2023-11-21T04:05:06;101273.94;;;9.90;100.00
74163;BME280;62515;52.758;5.076;2023-11-21T04:07:34;101275.47;;;9.94;100.00
74163;BME280;62515;52.758;5.076;2023-11-21T04:10:01;101282.22;;;10.00;100.00
74163;BME280;62515;52.758;5.076;2023-11-21T04:12:28;101287.59;;;9.98;100.00
74163;BME280;62515;52.758;5.076;2023-11-21T04:14:55;101290.38;;;9.97;100.00
74163;BME280;62515;52.758;5.076;2023-11-21T04:17:21;101295.03;;;9.93;100.00
74163;BME280;62515;52.758;5.076;2023-11-21T04:19:48;101309.38;;;9.91;100.00
74163;BME280;62515;52.758;5.076;2023-11-21T04:22:15;101305.19;;;9.87;100.00
74163;BME280;62515;52.758;5.076;2023-11-21T04:24:43;101316.88;;;9.84;100.00
74163;BME280;62515;52.758;5.076;2023-11-21T04:27:10;101319.72;;;9.81;100.00
74163;BME280;62515;52.758;5.076;2023-11-21T04:29:36;101336.16;;;9.88;100.00
74163;BME280;62515;52.758;5.076;2023-11-21T04:32:04;101332.63;;;9.87;100.00
74163;BME280;62515;52.758;5.076;2023-11-21T04:34:31;101336.03;;;9.89;100.00
74163;BME280;62515;52.758;5.076;2023-11-21T04:36:57;101343.25;;;9.87;100.00
74163;BME280;62515;52.758;5.076;2023-11-21T04:39:24;101349.44;;;9.88;100.00
74163;BME280;62515;52.758;5.076;2023-11-21T04:41:52;101342.41;;;9.87;100.00
74163;BME280;62515;52.758;5.076;2023-11-21T04:44:19;101363.56;;;9.74;100.00
74163;BME280;62515;52.758;5.076;2023-11-21T04:46:46;101358.41;;;9.71;100.00
74163;BME280;62515;52.758;5.076;2023-11-21T04:49:14;101359.34;;;9.70;100.00
74163;BME280;62515;52.758;5.076;2023-11-21T04:51:40;101364.66;;;9.70;100.00
74163;BME280;62515;52.758;5.076;2023-11-21T04:54:07;101362.94;;;9.69;100.00
74163;BME280;62515;52.758;5.076;2023-11-21T04:56:34;101357.56;;;9.71;100.00
74163;BME280;62515;52.758;5.076;2023-11-21T04:59:02;101375.56;;;9.66;100.00
74163;BME280;62515;52.758;5.076;2023-11-21T05:01:29;101376.59;;;9.63;100.00
74163;BME280;62515;52.758;5.076;2023-11-21T05:03:56;101390.00;;;9.62;100.00
74163;BME280;62515;52.758;5.076;2023-11-21T05:06:22;101394.47;;;9.61;100.00
74163;BME280;62515;52.758;5.076;2023-11-21T05:08:49;101390.88;;;9.62;100.00
74163;BME280;62515;52.758;5.076;2023-11-21T05:11:23;101391.81;;;9.61;100.00
74163;BME280;62515;52.758;5.076;2023-11-21T05:13:51;101391.81;;;9.61;100.00
74163;BME280;62515;52.758;5.076;2023-11-21T05:16:19;101395.41;;;9.60;100.00
74163;BME280;62515;52.758;5.076;2023-11-21T05:18:46;101398.84;;;9.62;100.00
74163;BME280;62515;52.758;5.076;2023-11-21T05:21:13;101402.31;;;9.63;100.00
74163;BME280;62515;52.758;5.076;2023-11-21T05:23:40;101401.50;;;9.62;100.00
74163;BME280;62515;52.758;5.076;2023-11-21T05:26:07;101409.53;;;9.61;100.00
74163;BME280;62515;52.758;5.076;2023-11-21T05:28:33;101407.06;;;9.58;100.00
74163;BME280;62515;52.758;5.076;2023-11-21T05:31:00;101415.91;;;9.58;100.00
74163;BME280;62515;52.758;5.076;2023-11-21T05:33:43;101415.91;;;9.58;100.00
74163;BME280;62515;52.758;5.076;2023-11-21T05:36:10;101414.94;;;9.59;100.00
74163;BME280;62515;52.758;5.076;2023-11-21T05:38:36;101419.31;;;9.60;100.00
74163;BME280;62515;52.758;5.076;2023-11-21T05:41:03;101423.75;;;9.60;100.00
74163;BME280;62515;52.758;5.076;2023-11-21T05:43:30;101417.00;;;9.54;100.00
74163;BME280;62515;52.758;5.076;2023-11-21T05:45:57;101408.53;;;9.48;100.00
74163;BME280;62515;52.758;5.076;2023-11-21T05:48:24;101418.84;;;9.38;100.00
74163;BME280;62515;52.758;5.076;2023-11-21T05:50:52;101426.22;;;9.33;100.00
74163;BME280;62515;52.758;5.076;2023-11-21T05:53:19;101431.63;;;9.31;100.00
74163;BME280;62515;52.758;5.076;2023-11-21T05:55:45;101436.84;;;9.33;100.00
74163;BME280;62515;52.758;5.076;2023-11-21T05:58:12;101449.28;;;9.32;100.00
74163;BME280;62515;52.758;5.076;2023-11-21T06:00:39;101454.31;;;9.37;100.00
74163;BME280;62515;52.758;5.076;2023-11-21T06:03:06;101459.44;;;9.40;100.00
74163;BME280;62515;52.758;5.076;2023-11-21T06:05:33;101461.94;;;9.43;100.00
74163;BME280;62515;52.758;5.076;2023-11-21T06:08:01;101464.44;;;9.46;100.00
74163;BME280;62515;52.758;5.076;2023-11-21T06:10:28;101474.19;;;9.45;100.00
74163;BME280;62515;52.758;5.076;2023-11-21T06:12:55;101481.31;;;9.45;100.00
74163;BME280;62515;52.758;5.076;2023-11-21T06:15:22;101483.97;;;9.45;100.00
74163;BME280;62515;52.758;5.076;2023-11-21T06:17:49;101496.13;;;9.49;100.00
74163;BME280;62515;52.758;5.076;2023-11-21T06:20:16;101489.97;;;9.49;100.00
74163;BME280;62515;52.758;5.076;2023-11-21T06:22:43;101497.66;;;9.53;100.00
74163;BME280;62515;52.758;5.076;2023-11-21T06:25:12;101498.53;;;9.54;100.00
74163;BME280;62515;52.758;5.076;2023-11-21T06:27:41;101504.69;;;9.54;100.00
74163;BME280;62515;52.758;5.076;2023-11-21T06:30:09;101511.72;;;9.55;100.00
74163;BME280;62515;52.758;5.076;2023-11-21T06:32:36;101512.59;;;9.56;100.00
74163;BME280;62515;52.758;5.076;2023-11-21T06:35:04;101513.53;;;9.55;100.00
74163;BME280;62515;52.758;5.076;2023-11-21T06:37:31;101518.16;;;9.51;100.00
74163;BME280;62515;52.758;5.076;2023-11-21T06:39:59;101535.03;;;9.50;100.00
74163;BME280;62515;52.758;5.076;2023-11-21T06:42:27;101533.41;;;9.48;100.00
74163;BME280;62515;52.758;5.076;2023-11-21T06:44:54;101530.84;;;9.46;100.00
74163;BME280;62515;52.758;5.076;2023-11-21T06:47:21;101543.44;;;9.42;100.00
74163;BME280;62515;52.758;5.076;2023-11-21T06:49:48;101546.88;;;9.44;100.00
74163;BME280;62515;52.758;5.076;2023-11-21T06:52:15;101555.69;;;9.45;100.00
74163;BME280;62515;52.758;5.076;2023-11-21T06:54:42;101553.09;;;9.43;100.00
74163;BME280;62515;52.758;5.076;2023-11-21T06:57:08;101557.50;;;9.44;100.00
74163;BME280;62515;52.758;5.076;2023-11-21T06:59:37;101567.25;;;9.44;100.00
74163;BME280;62515;52.758;5.076;2023-11-21T07:02:04;101569.91;;;9.44;100.00
74163;BME280;62515;52.758;5.076;2023-11-21T07:04:31;101579.69;;;9.43;100.00
74163;BME280;62515;52.758;5.076;2023-11-21T07:06:58;101577.88;;;9.44;100.00
74163;BME280;62515;52.758;5.076;2023-11-21T07:09:24;101576.16;;;9.43;100.00
74163;BME280;62515;52.758;5.076;2023-11-21T07:11:51;101585.09;;;9.42;100.00
74163;BME280;62515;52.758;5.076;2023-11-21T07:14:18;101600.16;;;9.41;100.00
74163;BME280;62515;52.758;5.076;2023-11-21T07:16:46;101602.06;;;9.39;100.00
74163;BME280;62515;52.758;5.076;2023-11-21T07:19:14;101606.59;;;9.37;100.00
74163;BME280;62515;52.758;5.076;2023-11-21T07:21:41;101620.78;;;9.36;100.00
74163;BME280;62515;52.758;5.076;2023-11-21T07:24:08;101627.13;;;9.34;100.00
74163;BME280;62515;52.758;5.076;2023-11-21T07:26:35;101635.97;;;9.34;100.00
74163;BME280;62515;52.758;5.076;2023-11-21T07:29:02;101644.97;;;9.32;100.00
74163;BME280;62515;52.758;5.076;2023-11-21T07:31:29;101650.19;;;9.33;100.00
74163;BME280;62515;52.758;5.076;2023-11-21T07:33:57;101659.88;;;9.34;100.00
74163;BME280;62515;52.758;5.076;2023-11-21T07:36:24;101654.72;;;9.31;100.00
74163;BME280;62515;52.758;5.076;2023-11-21T07:38:51;101660.97;;;9.30;100.00
74163;BME280;62515;52.758;5.076;2023-11-21T07:41:18;101659.97;;;9.33;100.00
74163;BME280;62515;52.758;5.076;2023-11-21T07:43:57;101663.56;;;9.32;100.00
74163;BME280;62515;52.758;5.076;2023-11-21T07:46:25;101671.59;;;9.30;100.00
74163;BME280;62515;52.758;5.076;2023-11-21T07:48:52;101671.88;;;9.26;100.00
74163;BME280;62515;52.758;5.076;2023-11-21T07:51:20;101680.69;;;9.26;100.00
74163;BME280;62515;52.758;5.076;2023-11-21T07:53:47;101686.16;;;9.23;100.00
74163;BME280;62515;52.758;5.076;2023-11-21T07:56:13;101685.38;;;9.21;100.00
74163;BME280;62515;52.758;5.076;2023-11-21T07:58:40;101697.09;;;9.17;100.00
74163;BME280;62515;52.758;5.076;2023-11-21T08:01:07;101695.75;;;9.26;100.00
74163;BME280;62515;52.758;5.076;2023-11-21T08:03:33;101700.06;;;9.28;100.00
74163;BME280;62515;52.758;5.076;2023-11-21T08:06:00;101699.81;;;9.33;100.00
74163;BME280;62515;52.758;5.076;2023-11-21T08:08:29;101709.31;;;9.37;100.00
74163;BME280;62515;52.758;5.076;2023-11-21T08:10:56;101722.44;;;9.40;100.00
74163;BME280;62515;52.758;5.076;2023-11-21T08:13:23;101716.19;;;9.41;100.00
74163;BME280;62515;52.758;5.076;2023-11-21T08:15:49;101719.63;;;9.43;100.00
74163;BME280;62515;52.758;5.076;2023-11-21T08:18:16;101718.84;;;9.41;100.00
74163;BME280;62515;52.758;5.076;2023-11-21T08:20:43;101730.41;;;9.40;100.00
74163;BME280;62515;52.758;5.076;2023-11-21T08:23:10;101741.19;;;9.37;100.00
74163;BME280;62515;52.758;5.076;2023-11-21T08:25:38;101741.19;;;9.37;100.00
74163;BME280;62515;52.758;5.076;2023-11-21T08:28:05;101742.88;;;9.39;100.00
74163;BME280;62515;52.758;5.076;2023-11-21T08:30:32;101740.09;;;9.41;100.00
74163;BME280;62515;52.758;5.076;2023-11-21T08:32:58;101744.72;;;9.37;100.00
74163;BME280;62515;52.758;5.076;2023-11-21T08:35:25;101748.78;;;9.44;100.00
74163;BME280;62515;52.758;5.076;2023-11-21T08:37:53;101755.81;;;9.45;100.00
74163;BME280;62515;52.758;5.076;2023-11-21T08:40:19;101749.44;;;9.32;100.00
74163;BME280;62515;52.758;5.076;2023-11-21T08:42:48;101748.56;;;9.32;100.00
74163;BME280;62515;52.758;5.076;2023-11-21T08:45:15;101760.91;;;9.33;100.00
74163;BME280;62515;52.758;5.076;2023-11-21T08:47:41;101759.34;;;9.29;100.00
74163;BME280;62515;52.758;5.076;2023-11-21T08:50:09;101774.25;;;9.31;100.00
74163;BME280;62515;52.758;5.076;2023-11-21T08:52:36;101768.03;;;9.32;100.00
74163;BME280;62515;52.758;5.076;2023-11-21T08:55:04;101769.50;;;9.38;100.00
74163;BME280;62515;52.758;5.076;2023-11-21T08:57:31;101771.75;;;9.45;100.00
74163;BME280;62515;52.758;5.076;2023-11-21T08:59:59;101774.25;;;9.49;100.00
74163;BME280;62515;52.758;5.076;2023-11-21T09:02:26;101782.38;;;9.45;100.00
74163;BME280;62515;52.758;5.076;2023-11-21T09:04:53;101789.34;;;9.48;100.00
74163;BME280;62515;52.758;5.076;2023-11-21T09:07:20;101800.72;;;9.50;100.00
74163;BME280;62515;52.758;5.076;2023-11-21T09:09:46;101805.72;;;9.56;100.00
74163;BME280;62515;52.758;5.076;2023-11-21T09:12:13;101812.94;;;9.54;100.00
74163;BME280;62515;52.758;5.076;2023-11-21T09:14:40;101816.28;;;9.58;100.00
74163;BME280;62515;52.758;5.076;2023-11-21T09:17:09;101828.38;;;9.63;100.00
74163;BME280;62515;52.758;5.076;2023-11-21T09:19:36;101832.22;;;9.58;100.00
74163;BME280;62515;52.758;5.076;2023-11-21T09:22:03;101842.09;;;9.56;100.00
74163;BME280;62515;52.758;5.076;2023-11-21T09:24:29;101853.00;;;9.50;100.00
74163;BME280;62515;52.758;5.076;2023-11-21T09:26:56;101851.16;;;9.52;100.00
74163;BME280;62515;52.758;5.076;2023-11-21T09:29:23;101865.91;;;9.57;100.00
74163;BME280;62515;52.758;5.076;2023-11-21T09:31:51;101865.44;;;9.66;100.00
74163;BME280;62515;52.758;5.076;2023-11-21T09:34:19;101872.09;;;9.75;100.00
74163;BME280;62515;52.758;5.076;2023-11-21T09:36:46;101878.88;;;9.80;100.00
74163;BME280;62515;52.758;5.076;2023-11-21T09:39:13;101879.59;;;9.84;100.00
74163;BME280;62515;52.758;5.076;2023-11-21T09:41:43;101889.50;;;9.97;100.00
74163;BME280;62515;52.758;5.076;2023-11-21T09:44:13;101898.41;;;9.96;100.00
74163;BME280;62515;52.758;5.076;2023-11-21T09:46:42;101895.91;;;10.11;100.00
74163;BME280;62515;52.758;5.076;2023-11-21T09:49:10;101912.25;;;10.20;100.00
74163;BME280;62515;52.758;5.076;2023-11-21T09:51:42;101909.94;;;10.14;100.00
74163;BME280;62515;52.758;5.076;2023-11-21T09:54:10;101928.28;;;10.19;100.00
74163;BME280;62515;52.758;5.076;2023-11-21T09:56:37;101938.00;;;10.20;100.00
74163;BME280;62515;52.758;5.076;2023-11-21T09:59:05;101941.84;;;10.14;100.00
74163;BME280;62515;52.758;5.076;2023-11-21T10:01:32;101939.22;;;9.95;100.00
74163;BME280;62515;52.758;5.076;2023-11-21T10:04:00;101951.81;;;9.92;100.00
74163;BME280;62515;52.758;5.076;2023-11-21T10:06:28;101953.00;;;9.86;100.00
74163;BME280;62515;52.758;5.076;2023-11-21T10:08:57;101961.19;;;9.82;100.00
74163;BME280;62515;52.758;5.076;2023-11-21T10:11:27;101963.97;;;9.80;100.00
74163;BME280;62515;52.758;5.076;2023-11-21T10:13:54;101969.34;;;9.79;100.00
74163;BME280;62515;52.758;5.076;2023-11-21T10:16:22;101967.72;;;9.93;100.00
74163;BME280;62515;52.758;5.076;2023-11-21T10:18:53;101976.41;;;9.97;100.00
74163;BME280;62515;52.758;5.076;2023-11-21T10:21:24;101975.41;;;10.17;100.00
74163;BME280;62515;52.758;5.076;2023-11-21T10:23:53;101985.41;;;10.29;100.00
74163;BME280;62515;52.758;5.076;2023-11-21T10:26:22;101980.09;;;10.29;100.00
74163;BME280;62515;52.758;5.076;2023-11-21T10:28:57;101973.50;;;10.36;100.00
74163;BME280;62515;52.758;5.076;2023-11-21T10:31:26;101987.56;;;10.38;100.00
74163;BME280;62515;52.758;5.076;2023-11-21T10:33:53;101998.38;;;10.35;100.00
74163;BME280;62515;52.758;5.076;2023-11-21T10:36:25;101986.03;;;10.34;100.00
74163;BME280;62515;52.758;5.076;2023-11-21T10:38:52;101996.81;;;10.31;100.00
74163;BME280;62515;52.758;5.076;2023-11-21T10:41:19;101998.38;;;10.01;100.00
74163;BME280;62515;52.758;5.076;2023-11-21T10:43:47;102004.16;;;9.91;100.00
74163;BME280;62515;52.758;5.076;2023-11-21T10:46:14;102010.06;;;9.79;100.00
74163;BME280;62515;52.758;5.076;2023-11-21T10:48:41;101999.91;;;9.70;100.00
74163;BME280;62515;52.758;5.076;2023-11-21T10:51:09;102011.88;;;9.62;100.00
74163;BME280;62515;52.758;5.076;2023-11-21T10:53:38;102007.41;;;9.62;100.00
74163;BME280;62515;52.758;5.076;2023-11-21T10:56:08;102002.66;;;9.69;100.00
74163;BME280;62515;52.758;5.076;2023-11-21T10:58:35;102005.59;;;9.63;100.00
74163;BME280;62515;52.758;5.076;2023-11-21T11:01:06;102013.66;;;9.61;100.00
74163;BME280;62515;52.758;5.076;2023-11-21T11:03:34;102018.16;;;9.59;100.00
74163;BME280;62515;52.758;5.076;2023-11-21T11:06:03;102011.09;;;9.77;100.00
74163;BME280;62515;52.758;5.076;2023-11-21T11:08:31;102016.50;;;9.92;100.00
74163;BME280;62515;52.758;5.076;2023-11-21T11:10:58;102010.72;;;10.02;100.00
74163;BME280;62515;52.758;5.076;2023-11-21T11:13:25;102011.25;;;10.27;100.00
74163;BME280;62515;52.758;5.076;2023-11-21T11:15:57;102000.97;;;10.36;100.00
74163;BME280;62515;52.758;5.076;2023-11-21T11:18:26;102003.53;;;10.38;100.00
74163;BME280;62515;52.758;5.076;2023-11-21T11:20:53;102015.38;;;10.32;100.00
74163;BME280;62515;52.758;5.076;2023-11-21T11:23:32;102013.97;;;10.25;100.00
74163;BME280;62515;52.758;5.076;2023-11-21T11:26:12;102015.22;;;10.18;100.00
74163;BME280;62515;52.758;5.076;2023-11-21T11:28:47;102017.75;;;10.03;100.00
74163;BME280;62515;52.758;5.076;2023-11-21T11:31:26;102025.63;;;10.23;100.00
74163;BME280;62515;52.758;5.076;2023-11-21T11:34:00;102029.13;;;10.90;100.00
74163;BME280;62515;52.758;5.076;2023-11-21T11:36:36;102019.56;;;11.50;100.00
74163;BME280;62515;52.758;5.076;2023-11-21T11:39:27;102025.47;;;11.24;100.00
74163;BME280;62515;52.758;5.076;2023-11-21T11:41:55;102030.56;;;10.80;100.00
74163;BME280;62515;52.758;5.076;2023-11-21T11:44:47;102033.78;;;10.37;100.00
74163;BME280;62515;52.758;5.076;2023-11-21T11:47:15;102040.41;;;10.28;100.00
74163;BME280;62515;52.758;5.076;2023-11-21T11:49:57;102051.75;;;10.32;100.00
74163;BME280;62515;52.758;5.076;2023-11-21T11:52:48;102055.91;;;10.37;100.00
74163;BME280;62515;52.758;5.076;2023-11-21T11:55:17;102060.22;;;10.40;100.00
74163;BME280;62515;52.758;5.076;2023-11-21T11:57:45;102067.28;;;10.24;100.00
74163;BME280;62515;52.758;5.076;2023-11-21T12:00:16;102082.84;;;10.13;100.00
74163;BME280;62515;52.758;5.076;2023-11-21T12:02:47;102082.53;;;10.02;100.00
74163;BME280;62515;52.758;5.076;2023-11-21T12:05:17;102082.72;;;9.80;100.00
74163;BME280;62515;52.758;5.076;2023-11-21T12:07:46;102079.19;;;9.79;100.00
74163;BME280;62515;52.758;5.076;2023-11-21T12:10:14;102082.16;;;9.73;100.00
74163;BME280;62515;52.758;5.076;2023-11-21T12:12:43;102083.44;;;9.83;100.00
74163;BME280;62515;52.758;5.076;2023-11-21T12:15:10;102084.63;;;10.14;100.00
74163;BME280;62515;52.758;5.076;2023-11-21T12:17:37;102083.06;;;10.44;100.00
74163;BME280;62515;52.758;5.076;2023-11-21T12:20:05;102077.66;;;10.63;100.00
74163;BME280;62515;52.758;5.076;2023-11-21T12:22:34;102094.16;;;10.35;100.00
74163;BME280;62515;52.758;5.076;2023-11-21T12:25:01;102089.00;;;10.15;100.00
74163;BME280;62515;52.758;5.076;2023-11-21T12:27:28;102095.94;;;9.81;100.00
74163;BME280;62515;52.758;5.076;2023-11-21T12:29:55;102107.94;;;9.53;100.00
74163;BME280;62515;52.758;5.076;2023-11-21T12:32:22;102103.34;;;9.56;100.00
74163;BME280;62515;52.758;5.076;2023-11-21T12:34:49;102109.97;;;9.66;100.00
74163;BME280;62515;52.758;5.076;2023-11-21T12:37:16;102118.00;;;9.83;100.00
74163;BME280;62515;52.758;5.076;2023-11-21T12:39:44;102115.78;;;9.74;100.00
74163;BME280;62515;52.758;5.076;2023-11-21T12:42:11;102128.38;;;9.52;100.00
74163;BME280;62515;52.758;5.076;2023-11-21T12:44:38;102138.88;;;9.55;100.00
74163;BME280;62515;52.758;5.076;2023-11-21T12:47:05;102139.72;;;9.74;100.00
74163;BME280;62515;52.758;5.076;2023-11-21T12:49:32;102145.44;;;9.84;100.00
74163;BME280;62515;52.758;5.076;2023-11-21T12:51:59;102144.59;;;9.83;100.00